This is the latest recevied weather packets stored in our database for station/object 2E0RGX-13. If no packets are shown the sender has not sent any weather packets the latest 10 day(s).
| Time | Temp. | Humidity | Pressure | Rain* | Wind** | Luminosity | Snow |
|---|---|---|---|---|---|---|---|
| 1777869861 | 12.22° C | 86% | 1008.8 hPa | 0 mm | - | 0 W/m² | - |
| 1777869557 | 12.22° C | 87% | 1008.8 hPa | 0 mm | - | 0 W/m² | - |
| 1777869253 | 12.78° C | 87% | 1008.7 hPa | 0 mm | - | 0 W/m² | - |
| 1777868949 | 12.78° C | 87% | 1008.8 hPa | 0 mm | - | 0 W/m² | - |
| 1777868645 | 12.78° C | 87% | 1008.8 hPa | 0 mm | - | 0 W/m² | - |
| 1777868341 | 12.22° C | 87% | 1008.8 hPa | 0 mm | - | 0 W/m² | - |
| 1777868037 | 12.22° C | 87% | 1008.7 hPa | 0 mm | - | 0 W/m² | - |
| 1777867733 | 12.22° C | 87% | 1008.7 hPa | 0 mm | - | 0 W/m² | - |
| 1777867429 | 12.22° C | 87% | 1008.7 hPa | 0 mm | - | 0 W/m² | - |
| 1777867125 | 12.22° C | 87% | 1008.6 hPa | 0 mm | - | 0 W/m² | - |
| 1777866821 | 12.22° C | 87% | 1008.7 hPa | 0 mm | - | 0 W/m² | - |
| 1777864997 | 12.78° C | 86% | 1008.7 hPa | 0 mm | - | 0 W/m² | - |
| 1777864085 | 12.78° C | 86% | 1008.7 hPa | 0 mm | - | 0 W/m² | - |
| 1777863477 | 12.78° C | 85% | 1008.6 hPa | 0 mm | - | 0 W/m² | - |
| 1777863173 | 12.78° C | 85% | 1008.5 hPa | 0 mm | - | 0 W/m² | - |
| 1777847973 | 15.56° C | 75% | 1007.7 hPa | 0 mm | - | 0 W/m² | - |
| 1777844629 | 16.67° C | 67% | 1007.2 hPa | 0 mm | - | 0 W/m² | - |
| 1777844325 | 16.67° C | 67% | 1007.2 hPa | 0 mm | - | 0 W/m² | - |
| 1777844021 | 16.67° C | 66% | 1007.2 hPa | 0 mm | - | 0 W/m² | - |
| 1777843109 | 16.67° C | 66% | 1007.1 hPa | 0 mm | - | 0 W/m² | - |
| 1777842804 | 17.22° C | 66% | 1007.1 hPa | 0 mm | - | 0 W/m² | - |
| 1777842504 | 17.22° C | 66% | 1007 hPa | 0 mm | - | 0 W/m² | - |
| 1777840677 | 17.22° C | 65% | 1007 hPa | 0 mm | - | 0 W/m² | - |
| 1777840373 | 17.22° C | 65% | 1006.8 hPa | 0 mm | - | 0 W/m² | - |
| 1777840069 | 17.22° C | 65% | 1006.6 hPa | 0 mm | - | 0 W/m² | - |
* Rain latest hour (hover to see other rain measurements)
** Current wind speed in m/s (hover to see current wind gust speed)